createdAt,value
2022-10-15T00:00:59.247Z,0.00
2022-10-15T00:01:59.124Z,0.00
2022-10-15T00:02:59.112Z,0.00
2022-10-15T00:03:59.105Z,0.00
2022-10-15T00:04:59.089Z,0.00
2022-10-15T00:05:59.083Z,0.00
2022-10-15T00:06:59.066Z,0.00
2022-10-15T00:07:59.054Z,0.00
2022-10-15T00:08:59.043Z,0.00
2022-10-15T00:09:59.031Z,0.00
2022-10-15T00:10:59.018Z,0.00
2022-10-15T00:11:59.034Z,0.00
2022-10-15T00:12:59.043Z,0.00
2022-10-15T00:13:58.987Z,0.00
2022-10-15T00:14:58.988Z,0.00
2022-10-15T00:15:58.960Z,0.00
2022-10-15T00:16:58.960Z,0.00
2022-10-15T00:17:58.939Z,0.00
2022-10-15T00:18:58.926Z,0.00
2022-10-15T00:19:58.916Z,0.00
2022-10-15T00:20:58.904Z,0.00
2022-10-15T00:21:58.986Z,0.00
2022-10-15T00:22:58.888Z,0.00
2022-10-15T00:23:58.868Z,0.00
2022-10-15T00:24:58.861Z,0.00
2022-10-15T00:25:58.846Z,0.00
2022-10-15T00:26:58.835Z,0.00
2022-10-15T00:27:58.845Z,0.00
2022-10-15T00:28:58.890Z,0.00
2022-10-15T00:29:58.800Z,0.00
2022-10-15T00:30:58.910Z,0.00
2022-10-15T00:31:58.779Z,0.00
2022-10-15T00:32:58.768Z,0.00
2022-10-15T00:33:58.759Z,0.00
2022-10-15T00:34:58.750Z,0.00
2022-10-15T00:35:58.730Z,0.00
2022-10-15T00:36:58.718Z,0.00
2022-10-15T00:37:58.711Z,0.00
2022-10-15T00:39:00.693Z,0.00
2022-10-15T00:39:58.738Z,0.00
2022-10-15T00:40:58.681Z,0.00
2022-10-15T00:41:58.661Z,0.00
2022-10-15T00:42:58.655Z,0.00
2022-10-15T00:43:58.663Z,0.00
2022-10-15T00:44:58.626Z,0.00
2022-10-15T00:45:58.623Z,0.00
2022-10-15T00:46:58.604Z,0.00
2022-10-15T00:47:58.594Z,0.00
2022-10-15T00:48:58.621Z,0.00
2022-10-15T00:49:58.568Z,0.00
2022-10-15T00:50:58.563Z,0.00
2022-10-15T00:51:58.550Z,0.00
2022-10-15T00:52:58.533Z,0.00
2022-10-15T00:53:58.521Z,0.00
2022-10-15T00:54:58.511Z,0.00
2022-10-15T00:55:58.497Z,0.00
2022-10-15T00:56:58.488Z,0.00
2022-10-15T00:57:58.475Z,0.00
2022-10-15T00:58:58.468Z,0.00
2022-10-15T00:59:58.481Z,0.00
2022-10-15T01:00:58.533Z,0.00
2022-10-15T01:01:58.436Z,0.00
2022-10-15T01:02:58.429Z,0.00
2022-10-15T01:03:58.407Z,0.00
2022-10-15T01:04:58.394Z,0.00
2022-10-15T01:05:58.384Z,0.00
2022-10-15T01:06:58.371Z,0.00
2022-10-15T01:07:58.360Z,0.00
2022-10-15T01:08:58.349Z,0.00
2022-10-15T01:09:58.337Z,0.00
2022-10-15T01:10:58.333Z,0.00
2022-10-15T01:11:58.316Z,0.00
2022-10-15T01:12:58.307Z,0.00
2022-10-15T01:13:58.289Z,0.00
2022-10-15T01:14:58.280Z,0.00
2022-10-15T01:15:58.288Z,0.00
2022-10-15T01:16:58.257Z,0.00
2022-10-15T01:18:00.267Z,0.00
2022-10-15T01:18:58.238Z,0.00
2022-10-15T01:19:58.222Z,0.00
2022-10-15T01:20:58.213Z,0.00
2022-10-15T01:21:58.206Z,0.00
2022-10-15T01:22:58.191Z,0.00
2022-10-15T01:23:58.187Z,0.00
2022-10-15T01:24:58.164Z,0.00
2022-10-15T01:25:58.153Z,0.00
2022-10-15T01:26:58.141Z,0.00
2022-10-15T01:27:58.130Z,0.00
2022-10-15T01:28:58.179Z,0.00
2022-10-15T01:29:58.113Z,0.00
2022-10-15T01:30:58.099Z,0.00
2022-10-15T01:31:58.114Z,0.00
2022-10-15T01:32:58.080Z,0.00
2022-10-15T01:33:58.068Z,0.00
2022-10-15T01:34:58.055Z,0.00
2022-10-15T01:36:00.130Z,0.00
2022-10-15T01:36:58.028Z,0.00
2022-10-15T01:37:58.022Z,0.00
2022-10-15T01:38:58.004Z,0.00
2022-10-15T01:39:57.993Z,0.00
2022-10-15T01:40:57.984Z,0.00
2022-10-15T01:41:57.970Z,0.00
2022-10-15T01:42:57.959Z,0.00
2022-10-15T01:43:57.954Z,0.00
2022-10-15T01:44:57.945Z,0.00
2022-10-15T01:45:57.930Z,0.00
2022-10-15T01:46:57.912Z,0.00
2022-10-15T01:47:57.923Z,0.00
2022-10-15T01:48:57.890Z,0.00
2022-10-15T01:49:57.880Z,0.00
2022-10-15T01:50:57.867Z,0.00
2022-10-15T01:51:57.857Z,0.00
2022-10-15T01:52:57.844Z,0.00
2022-10-15T01:53:57.838Z,0.00
2022-10-15T01:54:57.837Z,0.00
2022-10-15T01:55:57.817Z,0.00
2022-10-15T01:56:57.803Z,0.00
2022-10-15T01:57:57.789Z,0.00
2022-10-15T01:58:57.782Z,0.00
2022-10-15T01:59:57.823Z,0.00
2022-10-15T02:00:57.843Z,0.00
2022-10-15T02:01:58.241Z,0.00
2022-10-15T02:02:57.739Z,0.00
2022-10-15T02:03:57.743Z,0.00
2022-10-15T02:04:57.716Z,0.00
2022-10-15T02:05:57.726Z,0.00
2022-10-15T02:06:57.681Z,0.00
2022-10-15T02:07:57.674Z,0.00
2022-10-15T02:08:57.763Z,0.00
2022-10-15T02:09:57.655Z,0.00
2022-10-15T02:10:57.637Z,0.00
2022-10-15T02:11:57.623Z,0.00
2022-10-15T02:12:57.611Z,0.00
2022-10-15T02:13:57.600Z,0.00
2022-10-15T02:14:57.587Z,0.00
2022-10-15T02:15:57.576Z,0.00
2022-10-15T02:16:57.564Z,0.00
2022-10-15T02:17:57.553Z,0.00
2022-10-15T02:18:57.547Z,0.00
2022-10-15T02:20:57.525Z,0.00
2022-10-15T02:21:57.515Z,0.00
2022-10-15T02:22:57.495Z,0.00
2022-10-15T02:23:57.483Z,0.00
2022-10-15T02:24:57.471Z,0.00
2022-10-15T02:25:57.461Z,0.00
2022-10-15T02:26:57.464Z,0.00
2022-10-15T02:27:57.438Z,0.00
2022-10-15T02:28:57.547Z,0.00
2022-10-15T02:29:57.419Z,0.00
2022-10-15T02:30:57.403Z,0.00
2022-10-15T02:31:57.397Z,0.00
2022-10-15T02:32:57.379Z,0.00
2022-10-15T02:33:57.369Z,0.00
2022-10-15T02:34:57.359Z,0.00
2022-10-15T02:35:57.371Z,0.00
2022-10-15T02:36:57.335Z,0.00
2022-10-15T02:37:57.326Z,0.00
2022-10-15T02:38:57.314Z,0.00
2022-10-15T02:39:57.300Z,0.00
2022-10-15T02:40:57.292Z,0.00
2022-10-15T02:41:57.276Z,0.00
2022-10-15T02:42:57.269Z,0.00
2022-10-15T02:43:57.264Z,0.00
2022-10-15T02:44:57.242Z,0.00
2022-10-15T02:45:57.232Z,0.00
2022-10-15T02:46:57.220Z,0.00
2022-10-15T02:47:57.207Z,0.00
2022-10-15T02:48:57.198Z,0.00
2022-10-15T02:49:57.184Z,0.00
2022-10-15T02:50:57.173Z,0.00
2022-10-15T02:51:57.188Z,0.00
2022-10-15T02:52:57.149Z,0.00
2022-10-15T02:53:57.142Z,0.00
2022-10-15T02:54:57.126Z,0.00
2022-10-15T02:55:57.116Z,0.00
2022-10-15T02:56:57.121Z,0.00
2022-10-15T02:57:57.091Z,0.00
2022-10-15T02:58:57.082Z,0.00
2022-10-15T02:59:57.075Z,0.00
2022-10-15T03:00:57.103Z,0.00
2022-10-15T03:01:57.051Z,0.00
2022-10-15T03:02:57.035Z,0.00
2022-10-15T03:03:57.023Z,0.00
2022-10-15T03:04:57.011Z,0.00
2022-10-15T03:05:56.998Z,0.00
2022-10-15T03:06:56.988Z,0.00
2022-10-15T03:07:57.000Z,0.00
2022-10-15T03:08:56.964Z,0.00
2022-10-15T03:09:56.958Z,0.00
2022-10-15T03:10:56.949Z,0.00
2022-10-15T03:11:56.930Z,0.00
2022-10-15T03:12:56.920Z,0.00
2022-10-15T03:13:56.907Z,0.00
2022-10-15T03:14:56.895Z,0.00
2022-10-15T03:15:56.884Z,0.00
2022-10-15T03:16:56.873Z,0.00
2022-10-15T03:17:56.862Z,0.00
2022-10-15T03:18:56.861Z,0.00
2022-10-15T03:19:56.837Z,0.00
2022-10-15T03:20:56.832Z,0.00
2022-10-15T03:21:56.816Z,0.00
2022-10-15T03:22:56.803Z,0.00
2022-10-15T03:23:56.818Z,0.00
2022-10-15T03:24:56.780Z,0.00
2022-10-15T03:25:56.780Z,0.00
2022-10-15T03:26:56.759Z,0.00
2022-10-15T03:27:56.746Z,0.00
2022-10-15T03:28:56.809Z,0.00
2022-10-15T03:29:56.728Z,0.00
2022-10-15T03:30:56.713Z,0.00
2022-10-15T03:31:56.699Z,0.00
2022-10-15T03:32:56.688Z,0.00
2022-10-15T03:33:56.675Z,0.00
2022-10-15T03:34:56.695Z,0.00
2022-10-15T03:35:56.653Z,0.00
2022-10-15T03:36:56.641Z,0.00
2022-10-15T03:37:56.630Z,0.00
2022-10-15T03:38:56.619Z,0.00
2022-10-15T03:39:56.631Z,0.00
2022-10-15T03:40:56.601Z,0.00
2022-10-15T03:41:56.585Z,0.00
2022-10-15T03:42:56.582Z,0.00
2022-10-15T03:43:56.570Z,0.00
2022-10-15T03:44:56.551Z,0.00
2022-10-15T03:45:56.543Z,0.00
2022-10-15T03:46:56.527Z,0.00
2022-10-15T03:47:56.518Z,0.00
2022-10-15T03:48:56.505Z,0.00
2022-10-15T03:49:56.493Z,0.00
2022-10-15T03:50:56.488Z,0.00
2022-10-15T03:51:56.469Z,0.00
2022-10-15T03:52:56.458Z,0.00
2022-10-15T03:53:56.447Z,0.00
2022-10-15T03:54:56.435Z,0.00
2022-10-15T03:55:56.452Z,0.00
2022-10-15T03:56:56.418Z,0.00
2022-10-15T03:57:56.403Z,0.00
2022-10-15T03:58:56.389Z,0.00
2022-10-15T03:59:56.378Z,0.00
2022-10-15T04:00:56.516Z,0.00
2022-10-15T04:01:56.358Z,0.00
2022-10-15T04:02:56.342Z,0.00
2022-10-15T04:03:56.338Z,0.00
2022-10-15T04:04:56.322Z,0.00
2022-10-15T04:05:57.697Z,0.00
2022-10-15T04:06:56.298Z,0.00
2022-10-15T04:07:56.284Z,0.00
2022-10-15T04:08:56.278Z,0.00
2022-10-15T04:09:56.266Z,0.00
2022-10-15T04:10:56.249Z,0.00
2022-10-15T04:11:56.267Z,0.00
2022-10-15T04:12:56.234Z,0.00
2022-10-15T04:13:56.228Z,0.00
2022-10-15T04:14:56.202Z,0.00
2022-10-15T04:15:56.195Z,0.00
2022-10-15T04:16:56.184Z,0.00
2022-10-15T04:17:56.172Z,0.00
2022-10-15T04:18:56.155Z,0.00
2022-10-15T04:19:56.148Z,0.00
2022-10-15T04:20:56.139Z,0.00
2022-10-15T04:21:56.124Z,0.00
2022-10-15T04:22:56.115Z,0.00
2022-10-15T04:23:56.099Z,0.00
2022-10-15T04:24:56.086Z,0.00
2022-10-15T04:25:56.075Z,0.00
2022-10-15T04:26:56.072Z,0.00
2022-10-15T04:27:56.076Z,0.00
2022-10-15T04:28:56.141Z,0.00
2022-10-15T04:29:56.030Z,0.00
2022-10-15T04:30:56.024Z,0.00
2022-10-15T04:31:56.005Z,0.00
2022-10-15T04:32:55.995Z,0.00
2022-10-15T04:33:55.984Z,0.00
2022-10-15T04:34:55.971Z,0.00
2022-10-15T04:35:55.969Z,0.00
2022-10-15T04:36:55.947Z,0.00
2022-10-15T04:37:55.946Z,0.00
2022-10-15T04:38:55.924Z,0.00
2022-10-15T04:39:55.914Z,0.00
2022-10-15T04:40:55.905Z,0.00
2022-10-15T04:41:55.896Z,0.00
2022-10-15T04:42:55.879Z,0.00
2022-10-15T04:43:55.893Z,0.00
2022-10-15T04:44:55.857Z,0.00
2022-10-15T04:45:55.857Z,0.00
2022-10-15T04:46:55.841Z,0.00
2022-10-15T04:47:55.824Z,0.00
2022-10-15T04:48:55.817Z,0.00
2022-10-15T04:49:55.798Z,0.00
2022-10-15T04:50:55.791Z,0.00
2022-10-15T04:51:55.784Z,0.00
2022-10-15T04:52:55.766Z,0.00
2022-10-15T04:53:55.753Z,0.00
2022-10-15T04:54:55.747Z,0.00
2022-10-15T04:55:55.727Z,0.00
2022-10-15T04:56:55.720Z,0.00
2022-10-15T04:57:55.705Z,0.00
2022-10-15T04:58:55.694Z,0.00
2022-10-15T04:59:57.799Z,0.00
2022-10-15T05:00:55.678Z,0.00
2022-10-15T05:01:55.722Z,0.00
2022-10-15T05:02:55.658Z,0.00
2022-10-15T05:03:55.636Z,0.00
2022-10-15T05:04:55.631Z,4.00
2022-10-15T05:05:55.613Z,4.00
2022-10-15T05:06:57.600Z,4.00
2022-10-15T05:07:57.591Z,0.00
2022-10-15T05:08:55.577Z,4.00
2022-10-15T05:09:55.567Z,4.00
2022-10-15T05:10:55.555Z,4.00
2022-10-15T05:11:55.542Z,4.00
2022-10-15T05:12:56.848Z,4.00
2022-10-15T05:13:55.519Z,4.00
2022-10-15T05:14:55.508Z,4.00
2022-10-15T05:15:55.587Z,8.00
2022-10-15T05:16:55.514Z,8.00
2022-10-15T05:17:55.491Z,8.00
2022-10-15T05:18:57.465Z,8.00
2022-10-15T05:19:55.455Z,12.00
2022-10-15T05:20:55.445Z,16.00
2022-10-15T05:21:55.436Z,16.00
2022-10-15T05:22:57.413Z,16.00
2022-10-15T05:23:55.406Z,20.00
2022-10-15T05:24:55.393Z,20.00
2022-10-15T05:25:57.381Z,20.00
2022-10-15T05:26:55.373Z,24.00
2022-10-15T05:27:55.356Z,28.00
2022-10-15T05:28:55.491Z,32.00
2022-10-15T05:29:57.339Z,32.00
2022-10-15T05:30:55.322Z,32.00
2022-10-15T05:31:55.333Z,32.00
2022-10-15T05:32:55.301Z,40.00
2022-10-15T05:33:55.287Z,40.00
2022-10-15T05:34:55.281Z,48.00
2022-10-15T05:35:55.273Z,52.00
2022-10-15T05:36:55.252Z,56.00
2022-10-15T05:37:55.248Z,64.00
2022-10-15T05:38:55.229Z,68.00
2022-10-15T05:39:55.218Z,72.00
2022-10-15T05:40:55.211Z,80.00
2022-10-15T05:41:57.193Z,92.00
2022-10-15T05:42:55.188Z,100.00
2022-10-15T05:43:57.176Z,112.00
2022-10-15T05:44:55.161Z,120.00
2022-10-15T05:45:55.156Z,124.00
2022-10-15T05:46:55.136Z,136.00
2022-10-15T05:47:57.149Z,152.00
2022-10-15T05:48:55.119Z,164.00
2022-10-15T05:49:55.101Z,172.00
2022-10-15T05:50:55.092Z,176.00
2022-10-15T05:52:55.068Z,180.00
2022-10-15T05:53:55.057Z,168.00
2022-10-15T05:54:55.045Z,160.00
2022-10-15T05:55:55.032Z,148.00
2022-10-15T05:56:55.022Z,136.00
2022-10-15T05:57:55.010Z,136.00
2022-10-15T05:58:55.001Z,144.00
2022-10-15T05:59:54.987Z,156.00
2022-10-15T06:00:54.979Z,168.00
2022-10-15T06:01:55.003Z,172.00
2022-10-15T06:02:54.968Z,176.00
2022-10-15T06:03:54.972Z,172.00
2022-10-15T06:04:54.928Z,160.00
2022-10-15T06:05:54.921Z,148.00
2022-10-15T06:06:54.910Z,152.00
2022-10-15T06:07:54.893Z,164.00
2022-10-15T06:08:54.885Z,188.00
2022-10-15T06:09:54.870Z,208.00
2022-10-15T06:10:54.859Z,224.00
2022-10-15T06:11:54.847Z,240.00
2022-10-15T06:12:54.835Z,244.00
2022-10-15T06:13:54.825Z,240.00
2022-10-15T06:14:54.818Z,244.00
2022-10-15T06:15:54.801Z,260.00
2022-10-15T06:16:54.793Z,288.00
2022-10-15T06:17:54.784Z,312.00
2022-10-15T06:18:54.777Z,344.00
2022-10-15T06:19:54.786Z,392.00
2022-10-15T06:20:54.743Z,440.00
2022-10-15T06:21:54.730Z,480.00
2022-10-15T06:22:54.724Z,544.00
2022-10-15T06:23:54.708Z,648.00
2022-10-15T06:24:54.702Z,748.00
2022-10-15T06:25:54.690Z,864.00
2022-10-15T06:26:54.675Z,976.00
2022-10-15T06:27:54.662Z,956.00
2022-10-15T06:28:54.721Z,908.00
2022-10-15T06:29:54.640Z,912.00
2022-10-15T06:30:54.631Z,908.00
2022-10-15T06:31:54.615Z,944.00
2022-10-15T06:32:54.606Z,944.00
2022-10-15T06:33:54.600Z,944.00
2022-10-15T06:34:54.587Z,976.00
2022-10-15T06:35:54.593Z,1024.00
2022-10-15T06:36:54.557Z,1092.00
2022-10-15T06:37:57.105Z,1168.00
2022-10-15T06:38:54.539Z,1220.00
2022-10-15T06:39:54.524Z,1260.00
2022-10-15T06:40:54.518Z,1320.00
2022-10-15T06:41:54.500Z,1392.00
2022-10-15T06:42:54.494Z,1508.00
2022-10-15T06:43:54.592Z,1612.00
2022-10-15T06:44:54.465Z,1720.00
2022-10-15T06:45:54.454Z,1868.00
2022-10-15T06:46:54.443Z,1916.00
2022-10-15T06:47:54.432Z,1808.00
2022-10-15T06:48:54.424Z,1600.00
2022-10-15T06:49:54.414Z,1496.00
2022-10-15T06:50:54.401Z,1492.00
2022-10-15T06:51:54.406Z,1540.00
2022-10-15T06:52:54.405Z,1572.00
2022-10-15T06:53:54.363Z,1532.00
2022-10-15T06:54:54.352Z,1560.00
2022-10-15T06:55:54.343Z,1532.00
2022-10-15T06:56:54.335Z,1472.00
2022-10-15T06:57:54.319Z,1536.00
2022-10-15T06:58:54.314Z,1416.00
2022-10-15T06:59:54.305Z,1364.00
2022-10-15T07:00:54.284Z,1320.00
2022-10-15T07:01:54.279Z,1132.00
2022-10-15T07:02:54.267Z,1132.00
2022-10-15T07:03:54.249Z,1452.00
2022-10-15T07:04:54.241Z,1928.00
2022-10-15T07:05:54.226Z,2576.00
2022-10-15T07:06:54.218Z,4076.00
2022-10-15T07:07:54.226Z,5360.00
2022-10-15T07:08:54.191Z,5608.00
2022-10-15T07:09:54.185Z,4792.00
2022-10-15T07:10:54.169Z,4768.00
2022-10-15T07:11:54.158Z,4284.00
2022-10-15T07:12:54.148Z,4416.00
2022-10-15T07:13:54.137Z,3520.00
2022-10-15T07:14:54.124Z,1588.00
2022-10-15T07:15:54.196Z,1456.00
2022-10-15T07:16:54.102Z,1336.00
2022-10-15T07:17:54.095Z,1140.00
2022-10-15T07:18:54.081Z,944.00
2022-10-15T07:19:54.070Z,788.00
2022-10-15T07:20:54.056Z,684.00
2022-10-15T07:21:54.047Z,640.00
2022-10-15T07:22:54.034Z,664.00
2022-10-15T07:23:54.048Z,760.00
2022-10-15T07:24:54.014Z,888.00
2022-10-15T07:25:54.001Z,992.00
2022-10-15T07:26:53.996Z,1108.00
2022-10-15T07:27:53.978Z,1108.00
2022-10-15T07:28:54.042Z,1112.00
2022-10-15T07:29:53.966Z,1236.00
2022-10-15T07:30:53.944Z,1552.00
2022-10-15T07:31:54.042Z,2004.00
2022-10-15T07:32:53.928Z,2432.00
2022-10-15T07:33:53.911Z,2704.00
2022-10-15T07:34:53.900Z,3256.00
2022-10-15T07:35:53.893Z,8276.00
2022-10-15T07:36:53.882Z,6028.00
2022-10-15T07:37:53.866Z,6188.00
2022-10-15T07:38:53.996Z,5860.00
2022-10-15T07:39:53.986Z,6140.00
2022-10-15T07:40:53.833Z,3516.00
2022-10-15T07:41:53.824Z,6032.00
2022-10-15T07:42:53.811Z,4888.00
2022-10-15T07:43:53.800Z,5104.00
2022-10-15T07:44:53.790Z,5556.00
2022-10-15T07:45:53.776Z,6244.00
2022-10-15T07:46:53.767Z,6252.00
2022-10-15T07:47:53.761Z,5684.00
2022-10-15T07:48:53.742Z,6584.00
2022-10-15T07:49:53.737Z,5928.00
2022-10-15T07:50:53.728Z,5744.00
2022-10-15T07:51:53.708Z,4764.00
2022-10-15T07:52:53.697Z,4656.00
2022-10-15T07:53:53.687Z,5772.00
2022-10-15T07:54:53.675Z,5192.00
2022-10-15T07:55:53.688Z,6144.00
2022-10-15T07:56:53.651Z,4544.00
2022-10-15T07:57:53.642Z,4336.00
2022-10-15T07:58:53.637Z,6704.00
2022-10-15T07:59:53.620Z,5936.00
2022-10-15T08:00:53.611Z,5196.00
2022-10-15T08:01:53.605Z,5904.00
2022-10-15T08:02:53.585Z,5140.00
2022-10-15T08:03:53.581Z,5892.00
2022-10-15T08:04:53.574Z,5992.00
2022-10-15T08:05:53.558Z,4292.00
2022-10-15T08:06:53.541Z,5404.00
2022-10-15T08:07:53.530Z,4016.00
2022-10-15T08:08:53.519Z,4848.00
2022-10-15T08:09:53.512Z,6824.00
2022-10-15T08:10:53.495Z,6116.00
2022-10-15T08:11:53.516Z,6388.00
2022-10-15T08:12:53.479Z,4388.00
2022-10-15T08:13:53.462Z,4632.00
2022-10-15T08:14:53.456Z,5176.00
2022-10-15T08:15:56.310Z,4928.00
2022-10-15T08:16:53.426Z,4936.00
2022-10-15T08:17:53.419Z,5148.00
2022-10-15T08:18:53.408Z,6744.00
2022-10-15T08:19:53.398Z,6740.00
2022-10-15T08:20:53.389Z,4860.00
2022-10-15T08:21:53.371Z,4576.00
2022-10-15T08:22:53.358Z,4472.00
2022-10-15T08:23:53.347Z,6028.00
2022-10-15T08:24:53.338Z,4308.00
2022-10-15T08:25:53.324Z,6324.00
2022-10-15T08:26:53.313Z,5004.00
2022-10-15T08:27:53.324Z,4072.00
2022-10-15T08:28:53.363Z,4092.00
2022-10-15T08:29:53.284Z,3992.00
2022-10-15T08:30:53.273Z,4320.00
2022-10-15T08:31:53.255Z,4496.00
2022-10-15T08:32:53.246Z,4792.00
2022-10-15T08:33:53.238Z,4772.00
2022-10-15T08:34:53.231Z,4052.00
2022-10-15T08:35:53.213Z,4404.00
2022-10-15T08:36:53.201Z,5368.00
2022-10-15T08:37:53.188Z,5132.00
2022-10-15T08:38:53.226Z,5368.00
2022-10-15T08:39:53.217Z,5388.00
2022-10-15T08:40:53.156Z,5140.00
2022-10-15T08:41:53.144Z,4672.00
2022-10-15T08:42:53.133Z,5456.00
2022-10-15T08:43:53.144Z,8012.00
2022-10-15T08:44:53.137Z,5276.00
2022-10-15T08:45:53.101Z,7496.00
2022-10-15T08:46:53.088Z,5936.00
2022-10-15T08:47:53.081Z,6912.00
2022-10-15T08:48:53.070Z,4700.00
2022-10-15T08:49:53.057Z,4792.00
2022-10-15T08:50:54.079Z,6160.00
2022-10-15T08:51:53.034Z,8116.00
2022-10-15T08:52:53.027Z,7168.00
2022-10-15T08:53:53.018Z,7880.00
2022-10-15T08:54:53.001Z,9060.00
2022-10-15T08:55:52.995Z,5840.00
2022-10-15T08:56:52.977Z,8384.00
2022-10-15T08:57:52.968Z,8404.00
2022-10-15T08:58:52.963Z,7188.00
2022-10-15T08:59:52.967Z,4976.00
2022-10-15T09:00:52.934Z,5844.00
2022-10-15T09:01:52.924Z,7908.00
2022-10-15T09:02:52.984Z,9044.00
2022-10-15T09:03:52.903Z,4548.00
2022-10-15T09:04:52.893Z,3880.00
2022-10-15T09:05:52.877Z,4096.00
2022-10-15T09:06:52.871Z,3976.00
2022-10-15T09:07:54.486Z,4756.00
2022-10-15T09:08:52.844Z,4968.00
2022-10-15T09:09:52.835Z,4932.00
2022-10-15T09:10:52.824Z,4412.00
2022-10-15T09:11:52.813Z,4032.00
2022-10-15T09:12:52.801Z,3752.00
2022-10-15T09:13:52.789Z,3832.00
2022-10-15T09:14:55.677Z,3628.00
2022-10-15T09:15:52.802Z,3524.00
2022-10-15T09:16:52.754Z,3140.00
2022-10-15T09:17:52.751Z,2832.00
2022-10-15T09:18:52.737Z,2584.00
2022-10-15T09:19:52.723Z,2392.00
2022-10-15T09:20:52.717Z,2352.00
2022-10-15T09:21:52.711Z,2564.00
2022-10-15T09:22:52.690Z,2728.00
2022-10-15T09:23:52.684Z,2540.00
2022-10-15T09:24:52.667Z,2080.00
2022-10-15T09:25:52.655Z,1824.00
2022-10-15T09:26:52.646Z,1676.00
2022-10-15T09:27:52.633Z,1904.00
2022-10-15T09:28:52.753Z,2292.00
2022-10-15T09:29:52.613Z,2664.00
2022-10-15T09:30:52.600Z,2688.00
2022-10-15T09:31:52.646Z,2432.00
2022-10-15T09:32:54.382Z,2160.00
2022-10-15T09:33:52.567Z,1972.00
2022-10-15T09:34:52.560Z,1804.00
2022-10-15T09:35:52.545Z,1680.00
2022-10-15T09:36:52.543Z,1664.00
2022-10-15T09:37:52.524Z,1812.00
2022-10-15T09:38:52.513Z,2124.00
2022-10-15T09:39:52.501Z,2380.00
2022-10-15T09:40:52.491Z,2388.00
2022-10-15T09:41:52.481Z,2340.00
2022-10-15T09:42:52.486Z,2556.00
2022-10-15T09:43:52.458Z,2936.00
2022-10-15T09:44:52.450Z,3736.00
2022-10-15T09:45:52.434Z,3632.00
2022-10-15T09:46:52.433Z,3836.00
2022-10-15T09:47:52.444Z,4420.00
2022-10-15T09:48:52.400Z,4908.00
2022-10-15T09:49:52.393Z,7936.00
2022-10-15T09:50:52.376Z,12552.00
2022-10-15T09:51:52.367Z,14156.00
2022-10-15T09:52:52.356Z,14728.00
2022-10-15T09:53:52.344Z,14244.00
2022-10-15T09:54:52.331Z,13144.00
2022-10-15T09:55:52.325Z,9696.00
2022-10-15T09:56:52.309Z,7576.00
2022-10-15T09:57:52.301Z,7452.00
2022-10-15T09:58:52.297Z,4564.00
2022-10-15T09:59:52.283Z,3156.00
2022-10-15T10:00:52.272Z,2344.00
2022-10-15T10:01:52.369Z,2052.00
2022-10-15T10:02:52.245Z,2372.00
2022-10-15T10:03:52.264Z,2708.00
2022-10-15T10:04:52.222Z,2532.00
2022-10-15T10:05:52.211Z,2288.00
2022-10-15T10:06:52.208Z,2108.00
2022-10-15T10:07:52.190Z,1876.00
2022-10-15T10:08:52.180Z,1620.00
2022-10-15T10:09:52.168Z,1368.00
2022-10-15T10:10:52.158Z,1216.00
2022-10-15T10:11:52.149Z,1168.00
2022-10-15T10:12:52.141Z,1260.00
2022-10-15T10:13:52.123Z,1372.00
2022-10-15T10:14:52.112Z,1316.00
2022-10-15T10:15:57.472Z,1252.00
2022-10-15T10:16:52.090Z,1172.00
2022-10-15T10:17:52.078Z,1136.00
2022-10-15T10:18:52.067Z,1176.00
2022-10-15T10:19:52.082Z,1340.00
2022-10-15T10:20:52.050Z,1600.00
2022-10-15T10:21:52.033Z,1648.00
2022-10-15T10:22:52.064Z,1460.00
2022-10-15T10:23:52.019Z,1192.00
2022-10-15T10:24:52.014Z,1080.00
2022-10-15T10:25:51.986Z,1124.00
2022-10-15T10:26:52.048Z,1324.00
2022-10-15T10:27:51.966Z,1548.00
2022-10-15T10:28:56.625Z,1612.00
2022-10-15T10:29:52.009Z,1664.00
2022-10-15T10:30:51.934Z,1764.00
2022-10-15T10:31:51.926Z,1684.00
2022-10-15T10:32:51.910Z,1544.00
2022-10-15T10:33:51.897Z,1440.00
2022-10-15T10:34:52.985Z,1396.00
2022-10-15T10:35:51.903Z,1504.00
2022-10-15T10:36:51.869Z,1900.00
2022-10-15T10:37:51.859Z,2552.00
2022-10-15T10:38:51.842Z,3056.00
2022-10-15T10:39:51.837Z,3532.00
2022-10-15T10:40:51.819Z,3648.00
2022-10-15T10:41:51.816Z,3612.00
2022-10-15T10:42:51.805Z,3508.00
2022-10-15T10:43:51.787Z,3376.00
2022-10-15T10:44:51.782Z,3216.00
2022-10-15T10:45:51.764Z,3124.00
2022-10-15T10:46:51.752Z,3104.00
2022-10-15T10:47:51.744Z,3096.00
2022-10-15T10:48:51.729Z,2968.00
2022-10-15T10:49:51.720Z,2804.00
2022-10-15T10:50:51.709Z,2692.00
2022-10-15T10:51:51.720Z,2580.00
2022-10-15T10:52:51.687Z,2400.00
2022-10-15T10:53:51.685Z,2240.00
2022-10-15T10:54:51.665Z,2168.00
2022-10-15T10:55:51.656Z,2200.00
2022-10-15T10:56:51.642Z,2352.00
2022-10-15T10:57:51.628Z,2480.00
2022-10-15T10:58:51.619Z,2472.00
2022-10-15T10:59:51.607Z,2360.00
2022-10-15T11:00:51.658Z,2280.00
2022-10-15T11:01:51.591Z,2220.00
2022-10-15T11:02:51.574Z,2100.00
2022-10-15T11:03:51.561Z,1940.00
2022-10-15T11:04:51.550Z,1740.00
2022-10-15T11:05:51.539Z,1508.00
2022-10-15T11:06:51.528Z,1344.00
2022-10-15T11:07:51.545Z,1256.00
2022-10-15T11:08:51.510Z,1332.00
2022-10-15T11:09:55.279Z,1420.00
2022-10-15T11:10:51.482Z,1368.00
2022-10-15T11:11:51.478Z,1348.00
2022-10-15T11:12:51.462Z,1272.00
2022-10-15T11:13:51.448Z,1116.00
2022-10-15T11:14:51.438Z,1004.00
2022-10-15T11:15:51.428Z,972.00
2022-10-15T11:16:51.417Z,992.00
2022-10-15T11:17:51.411Z,1044.00
2022-10-15T11:18:51.395Z,1100.00
2022-10-15T11:20:12.138Z,1192.00
2022-10-15T11:20:58.712Z,1296.00
2022-10-15T11:21:51.361Z,1512.00
2022-10-15T11:22:51.356Z,1808.00
2022-10-15T11:23:51.361Z,1948.00
2022-10-15T11:25:06.021Z,2156.00
2022-10-15T11:25:51.323Z,2576.00
2022-10-15T11:27:06.347Z,3760.00
2022-10-15T11:27:51.293Z,4408.00
2022-10-15T11:28:51.337Z,4776.00
2022-10-15T11:29:51.272Z,4636.00
2022-10-15T11:30:51.260Z,4012.00
2022-10-15T11:32:01.982Z,3704.00
2022-10-15T11:33:08.296Z,6880.00
2022-10-15T11:33:51.232Z,6024.00
2022-10-15T11:34:51.215Z,12016.00
2022-10-15T11:35:53.734Z,10576.00
2022-10-15T11:36:51.192Z,5620.00
2022-10-15T11:37:51.184Z,9784.00
2022-10-15T11:38:51.178Z,8172.00
2022-10-15T11:39:51.184Z,5860.00
2022-10-15T11:40:51.153Z,9280.00
2022-10-15T11:41:51.135Z,8292.00
2022-10-15T11:42:51.124Z,3784.00
2022-10-15T11:43:51.120Z,4196.00
2022-10-15T11:44:51.105Z,10456.00
2022-10-15T11:45:51.093Z,11248.00
2022-10-15T11:46:51.084Z,9652.00
2022-10-15T11:47:51.069Z,11352.00
2022-10-15T11:48:51.062Z,3448.00
2022-10-15T11:49:51.053Z,2696.00
2022-10-15T11:50:51.038Z,2164.00
2022-10-15T11:51:51.032Z,2008.00
2022-10-15T11:52:51.023Z,1996.00
2022-10-15T11:53:51.003Z,1840.00
2022-10-15T11:54:50.991Z,1744.00
2022-10-15T11:55:51.022Z,1940.00
2022-10-15T11:56:50.972Z,2300.00
2022-10-15T11:57:50.961Z,2476.00
2022-10-15T11:58:50.980Z,2652.00
2022-10-15T11:59:50.937Z,3460.00
2022-10-15T12:00:50.929Z,9232.00
2022-10-15T12:01:50.913Z,8236.00
2022-10-15T12:02:50.906Z,9320.00
2022-10-15T12:03:50.952Z,9264.00
2022-10-15T12:04:50.884Z,7876.00
2022-10-15T12:05:50.875Z,6860.00
2022-10-15T12:06:50.856Z,2824.00
2022-10-15T12:07:50.844Z,3044.00
2022-10-15T12:08:50.836Z,3420.00
2022-10-15T12:09:50.825Z,3244.00
2022-10-15T12:10:50.813Z,1940.00
2022-10-15T12:11:50.827Z,2056.00
2022-10-15T12:12:50.789Z,2324.00
2022-10-15T12:13:50.783Z,2100.00
2022-10-15T12:14:50.776Z,1908.00
2022-10-15T12:15:50.761Z,1872.00
2022-10-15T12:16:50.747Z,1812.00
2022-10-15T12:17:50.733Z,1796.00
2022-10-15T12:18:50.724Z,1740.00
2022-10-15T12:19:50.712Z,1648.00
2022-10-15T12:20:50.703Z,1588.00
2022-10-15T12:21:50.690Z,1628.00
2022-10-15T12:22:50.677Z,1796.00
2022-10-15T12:23:50.666Z,2048.00
2022-10-15T12:24:50.656Z,2352.00
2022-10-15T12:25:50.646Z,2520.00
2022-10-15T12:26:50.632Z,2896.00
2022-10-15T12:27:50.648Z,3604.00
2022-10-15T12:28:50.670Z,3676.00
2022-10-15T12:29:50.601Z,4008.00
2022-10-15T12:30:50.597Z,6448.00
2022-10-15T12:31:50.576Z,3172.00
2022-10-15T12:32:50.575Z,2760.00
2022-10-15T12:33:50.556Z,2428.00
2022-10-15T12:34:50.546Z,2252.00
2022-10-15T12:35:50.533Z,2056.00
2022-10-15T12:36:50.521Z,1832.00
2022-10-15T12:37:50.510Z,1732.00
2022-10-15T12:38:50.498Z,1788.00
2022-10-15T12:39:52.816Z,1888.00